Time;durP1;ratioP1;P1;durP2;ratioP2;P2;SDS_P1;SDS_P2;PMS_P1;PMS_P2;Temp;Humidity;BMP_temperature;BMP_pressure;BME280_temperature;BME280_humidity;BME280_pressure;Samples;Min_cycle;Max_cycle;Signal;HPM_P1;HPM_P2
2023/10/24 00:01:28;;;;;;;3.50;2.70;;;15.40;96.30;;;15.73;60.19;97787.00;4959682;28;123976;-83
2023/10/24 00:04:00;;;;;;;5.10;2.37;;;15.40;96.20;;;15.71;60.13;97781.78;4963142;28;123875;-83
2023/10/24 00:06:29;;;;;;;4.40;3.10;;;15.40;96.20;;;15.71;60.06;97775.41;4963949;28;115771;-82
2023/10/24 00:08:55;;;;;;;6.90;3.10;;;15.40;96.10;;;15.70;60.09;97757.91;4965696;28;114807;-81
2023/10/24 00:11:22;;;;;;;5.43;3.00;;;15.40;96.10;;;15.71;60.00;97762.28;4960791;28;123055;-82
2023/10/24 00:13:48;;;;;;;5.33;3.33;;;15.40;96.10;;;15.70;59.87;97763.47;4961368;28;123771;-83
2023/10/24 00:16:15;;;;;;;4.03;2.63;;;15.40;96.00;;;15.70;59.72;97785.75;4964512;28;114252;-84
2023/10/24 00:18:41;;;;;;;4.80;3.10;;;15.40;96.00;;;15.72;59.86;97788.19;4963172;28;114049;-79
2023/10/24 00:21:08;;;;;;;4.20;3.03;;;15.40;96.00;;;15.70;59.99;97777.41;4967853;28;124004;-79
2023/10/24 00:23:35;;;;;;;5.00;3.00;;;15.40;95.90;;;15.71;59.89;97781.78;4968654;28;126789;-81
2023/10/24 00:26:04;;;;;;;4.80;2.83;;;15.40;95.90;;;15.71;59.87;97781.78;4967054;28;114109;-81
2023/10/24 00:28:30;;;;;;;3.43;2.70;;;15.40;95.90;;;15.69;59.85;97789.72;4968440;28;114414;-82
2023/10/24 00:30:57;;;;;;;3.80;2.70;;;15.40;95.90;;;15.67;59.73;97786.47;4967272;28;124358;-81
2023/10/24 00:33:23;;;;;;;4.60;3.13;;;15.40;95.90;;;15.66;59.85;97784.84;4966959;28;125572;-80
2023/10/24 00:35:50;;;;;;;4.80;3.10;;;15.40;95.90;;;15.66;60.01;97788.47;4968394;28;114271;-80
2023/10/24 00:38:28;;;;;;;6.57;3.20;;;16.80;96.60;;;15.65;59.72;97799.94;4963457;28;114240;-82
2023/10/24 00:40:55;;;;;;;6.00;3.27;;;16.10;96.20;;;15.62;59.92;97809.84;4970712;28;124064;-81
2023/10/24 00:43:21;;;;;;;3.80;3.00;;;15.30;95.80;;;15.62;59.73;97806.25;4967593;28;124093;-82
2023/10/24 00:45:48;;;;;;;4.20;2.93;;;15.30;95.80;;;15.61;59.72;97807.47;4966357;28;114205;-82
2023/10/24 00:48:14;;;;;;;5.40;3.20;;;15.60;95.90;;;15.63;59.79;97799.50;4964916;28;113963;-82
2023/10/24 00:50:41;;;;;;;3.27;2.53;;;15.30;95.80;;;15.63;59.62;97799.50;4966655;28;123990;-81
2023/10/24 00:53:10;;;;;;;3.93;2.50;;;16.80;96.40;;;15.64;59.68;97799.16;4966504;28;123423;-80
2023/10/24 00:55:38;;;;;;;3.93;2.90;;;15.30;95.80;;;15.65;59.62;97805.53;4952065;28;114910;-81
2023/10/24 00:58:07;;;;;;;5.23;3.07;;;15.40;95.80;;;15.66;59.60;97798.78;4961121;28;115130;-82
2023/10/24 01:00:35;;;;;;;5.53;2.80;;;15.30;95.80;;;15.65;59.57;97806.31;4962975;28;124290;-83
2023/10/24 01:03:03;;;;;;;6.23;3.00;;;15.40;95.80;;;15.67;59.38;97792.03;4963951;28;123041;-80
2023/10/24 01:05:30;;;;;;;6.67;3.07;;;15.40;95.80;;;15.67;59.09;97786.47;4960328;28;113985;-81
2023/10/24 01:07:57;;;;;;;4.00;3.30;;;15.40;95.80;;;15.67;59.50;97786.47;4958390;28;113254;-81
2023/10/24 01:10:23;;;;;;;4.60;3.40;;;15.40;95.80;;;15.67;59.46;97775.34;4967733;28;123176;-82
2023/10/24 01:12:50;;;;;;;4.60;3.07;;;15.60;95.90;;;15.68;59.46;97776.94;4955758;28;123892;-81
2023/10/24 01:15:20;;;;;;;3.83;2.57;;;15.40;95.80;;;15.68;59.33;97766.63;4968026;28;114294;-80
2023/10/24 01:17:55;;;;;;;4.23;3.13;;;16.60;96.30;;;15.67;59.30;97770.56;4953496;28;112759;-81
2023/10/24 01:20:22;;;;;;;4.50;3.00;;;15.40;95.80;;;15.67;59.42;97755.84;4968895;28;123435;-84
2023/10/24 01:22:53;;;;;;;4.47;2.93;;;15.40;95.70;;;15.68;59.20;97751.88;4969608;28;123245;-84
2023/10/24 01:25:20;;;;;;;3.20;2.60;;;15.40;95.70;;;15.67;59.36;97758.63;4970126;28;114757;-84
2023/10/24 01:27:53;;;;;;;5.20;2.97;;;14.30;95.20;;;15.65;59.24;97758.97;4963380;28;113765;-82
2023/10/24 01:30:20;;;;;;;5.37;2.97;;;17.30;96.50;;;15.66;59.39;97757.00;4958399;28;124299;-80
2023/10/24 01:32:47;;;;;;;5.23;2.77;;;15.40;95.70;;;15.69;59.28;97753.53;4962951;28;123020;-80
2023/10/24 01:35:13;;;;;;;3.60;2.63;;;16.10;96.00;;;15.70;59.27;97743.97;4960705;28;114213;-80
2023/10/24 01:37:40;;;;;;;7.40;3.10;;;13.60;94.90;;;15.72;59.31;97746.41;4963840;28;113205;-80
2023/10/24 01:40:07;;;;;;;7.93;3.37;;;16.30;96.00;;;15.74;59.14;97752.38;4964910;28;124291;-79
2023/10/24 01:42:33;;;;;;;6.80;3.40;;;15.40;95.60;;;15.75;59.33;97745.66;4970158;28;123941;-83
2023/10/24 01:45:02;;;;;;;5.00;3.00;;;16.80;96.20;;;15.75;59.05;97743.66;4965162;28;115295;-83
2023/10/24 01:47:29;;;;;;;7.10;2.87;;;15.40;95.60;;;15.75;59.17;97749.25;4969920;28;115084;-80
2023/10/24 01:49:55;;;;;;;3.70;2.80;;;15.40;95.60;;;15.76;59.17;97739.69;4966112;28;124067;-81
2023/10/24 01:52:22;;;;;;;4.20;3.23;;;15.40;95.60;;;15.76;59.21;97739.69;4964591;28;123935;-80
2023/10/24 01:54:48;;;;;;;4.23;3.03;;;15.40;95.50;;;15.77;59.02;97737.72;4968473;28;114152;-83
2023/10/24 01:57:17;;;;;;;5.47;3.03;;;15.40;95.50;;;15.74;59.06;97736.47;4963385;28;113759;-80
2023/10/24 01:59:46;;;;;;;5.00;3.07;;;16.30;95.90;;;15.76;59.03;97747.25;4970628;28;124032;-82
2023/10/24 02:02:13;;;;;;;5.37;2.90;;;15.40;95.50;;;15.73;59.13;97734.88;4970707;28;124039;-81
2023/10/24 02:04:42;;;;;;;8.50;3.10;;;15.40;95.50;;;15.73;59.23;97750.78;4970260;28;114175;-80
2023/10/24 02:07:09;;;;;;;4.93;3.00;;;15.40;95.60;;;15.73;59.49;97754.38;4973508;28;113664;-82
2023/10/24 02:09:36;;;;;;;5.30;2.63;;;15.40;95.60;;;15.73;59.47;97754.38;4969869;28;123941;-80
2023/10/24 02:12:03;;;;;;;3.90;3.00;;;15.80;95.80;;;15.72;59.34;97751.97;4966116;28;123829;-83
2023/10/24 02:14:31;;;;;;;6.40;2.90;;;15.40;95.70;;;15.71;59.67;97753.94;4970529;28;114174;-85
2023/10/24 02:16:58;;;;;;;4.90;3.07;;;15.50;95.80;;;15.68;59.90;97754.66;4971401;28;113504;-83
2023/10/24 02:19:26;;;;;;;5.60;3.23;;;15.40;95.80;;;15.68;59.66;97754.66;4980375;28;123628;-80
2023/10/24 02:21:52;;;;;;;3.40;2.70;;;15.40;95.80;;;15.70;59.89;97763.47;4963740;28;123213;-83
2023/10/24 02:24:19;;;;;;;7.27;3.40;;;15.40;95.90;;;15.70;60.04;97751.53;4970101;28;114606;-82
2023/10/24 02:26:45;;;;;;;6.93;3.07;;;15.80;96.10;;;15.68;60.13;97754.66;4962467;28;113729;-81
2023/10/24 02:29:12;;;;;;;5.80;2.57;;;15.60;96.00;;;15.67;60.20;97753.06;4966984;28;124097;-79
2023/10/24 02:31:38;;;;;;;4.13;3.10;;;15.50;96.00;;;15.67;60.23;97753.84;4965674;28;124089;-81
2023/10/24 02:34:05;;;;;;;5.70;2.90;;;15.40;96.00;;;15.68;60.06;97754.66;4964024;28;114979;-80
2023/10/24 02:36:36;;;;;;;4.67;2.70;;;15.40;96.00;;;15.67;59.86;97742.72;4969986;28;115250;-81
2023/10/24 02:39:02;;;;;;;4.13;2.67;;;15.90;96.20;;;15.64;59.88;97743.47;4966194;28;124092;-81
2023/10/24 02:41:29;;;;;;;4.50;2.93;;;15.40;96.00;;;15.64;60.19;97743.47;4950713;28;123757;-80
2023/10/24 02:43:57;;;;;;;4.20;2.93;;;15.40;96.00;;;15.63;60.08;97757.75;4950707;28;114326;-81
2023/10/24 02:46:24;;;;;;;4.30;2.83;;;15.40;96.10;;;15.64;60.45;97751.03;4953272;28;114127;-81
2023/10/24 02:48:50;;;;;;;4.27;2.60;;;15.40;96.10;;;15.63;60.16;97754.97;4950109;28;124537;-82
2023/10/24 02:51:17;;;;;;;2.97;2.43;;;16.80;96.70;;;15.63;60.21;97746.59;4961090;28;123889;-80
2023/10/24 02:53:43;;;;;;;3.40;2.53;;;15.40;96.20;;;15.65;60.17;97744.25;4985065;28;113832;-80
2023/10/24 02:56:10;;;;;;;5.20;2.97;;;15.60;96.30;;;15.65;60.22;97745.06;4962392;28;114106;-81
2023/10/24 02:58:36;;;;;;;5.57;2.77;;;17.30;97.00;;;15.65;60.39;97749.84;4957867;28;123387;-80
2023/10/24 03:01:04;;;;;;;3.80;2.83;;;15.70;96.30;;;15.65;60.44;97755.41;4963955;28;123895;-80
2023/10/24 03:03:34;;;;;;;4.90;3.07;;;15.40;96.20;;;15.63;60.44;97752.97;4957042;28;114234;-81
2023/10/24 03:06:00;;;;;;;5.97;3.10;;;15.40;96.20;;;15.62;60.71;97767.28;4970238;28;113212;-80
2023/10/24 03:08:27;;;;;;;3.83;2.70;;;16.50;96.70;;;15.61;60.33;97760.91;4967171;28;124044;-80
2023/10/24 03:10:56;;;;;;;8.13;2.73;;;17.40;97.10;;;15.59;60.57;97756.91;4953405;28;123091;-80
2023/10/24 03:13:22;;;;;;;2.73;2.40;;;15.30;96.10;;;15.57;60.49;97751.69;4961919;28;114324;-84
2023/10/24 03:15:49;;;;;;;3.90;2.57;;;15.40;96.10;;;15.57;60.39;97748.09;4952853;28;113826;-83
2023/10/24 03:18:17;;;;;;;6.13;2.40;;;15.30;96.00;;;15.55;60.24;97744.88;4954809;28;123740;-82
2023/10/24 03:20:44;;;;;;;9.73;2.30;;;16.80;96.70;;;15.55;60.02;97753.22;4953331;28;123633;-83
2023/10/24 03:23:10;;;;;;;4.00;2.17;;;15.30;96.00;;;15.54;60.14;97741.28;4988398;28;114785;-82
2023/10/24 03:25:41;;;;;;;4.30;2.27;;;15.30;96.00;;;15.55;59.82;97744.88;4957812;28;115032;-82
2023/10/24 03:28:08;;;;;;;3.43;2.23;;;15.30;96.00;;;15.53;60.05;97750.00;4949723;28;123733;-79
2023/10/24 03:30:34;;;;;;;2.60;2.10;;;15.30;95.90;;;15.53;60.05;97741.66;4958735;28;123902;-83
2023/10/24 03:33:02;;;;;;;4.57;2.30;;;15.30;95.90;;;15.53;59.80;97736.09;4954942;28;113434;-80
2023/10/24 03:35:29;;;;;;;4.27;2.67;;;16.70;96.50;;;15.53;59.84;97719.38;4949413;28;113981;-80
2023/10/24 03:37:55;;;;;;;4.90;2.53;;;15.20;95.90;;;15.55;59.85;97711.47;4964602;28;124047;-79
2023/10/24 03:40:26;;;;;;;3.70;2.43;;;16.40;96.40;;;15.55;59.81;97706.69;4956827;28;123912;-81
2023/10/24 03:42:59;;;;;;;2.70;2.00;;;15.30;95.90;;;15.57;59.75;97698.00;4949470;28;114210;-79
2023/10/24 03:45:27;;;;;;;5.30;2.57;;;15.30;95.90;;;15.59;59.62;97692.84;4961530;28;113710;-85
2023/10/24 03:47:56;;;;;;;3.50;2.57;;;15.30;95.90;;;15.61;59.69;97687.72;4960093;28;124109;-83
2023/10/24 03:50:23;;;;;;;4.90;2.47;;;15.30;95.80;;;15.62;59.80;97689.31;4956280;28;123811;-80
2023/10/24 03:52:50;;;;;;;3.57;2.47;;;14.40;95.40;;;15.64;59.82;97681.41;4949435;28;114367;-84
2023/10/24 03:55:16;;;;;;;7.20;3.30;;;15.40;95.90;;;15.64;59.64;97676.63;4949195;28;113762;-82
2023/10/24 03:57:43;;;;;;;4.57;3.20;;;15.40;95.90;;;15.64;59.99;97682.22;4950978;28;124051;-81
2023/10/24 04:00:13;;;;;;;5.30;3.33;;;15.40;95.90;;;15.63;60.23;97669.44;4949055;28;123468;-80
2023/10/24 04:02:39;;;;;;;8.70;3.80;;;15.40;96.00;;;15.65;59.91;97672.66;4966584;28;114621;-80
2023/10/24 04:05:06;;;;;;;5.70;3.20;;;15.40;96.00;;;15.67;60.47;97675.09;4953803;28;113927;-80
2023/10/24 04:07:33;;;;;;;4.80;2.70;;;15.40;96.10;;;15.66;59.93;97665.09;4955446;28;123185;-80
2023/10/24 04:09:59;;;;;;;7.57;3.43;;;17.60;97.00;;;15.63;60.14;97677.00;4951904;28;123720;-85
2023/10/24 04:12:29;;;;;;;7.83;3.10;;;15.30;96.20;;;15.57;60.43;97682.09;4991074;28;114490;-81
2023/10/24 04:14:55;;;;;;;6.13;3.73;;;15.30;96.20;;;15.52;60.70;97685.19;4952698;28;115021;-81
2023/10/24 04:17:24;;;;;;;4.30;2.90;;;15.20;96.60;;;15.48;60.71;97680.75;4948238;28;124026;-80
2023/10/24 04:19:53;;;;;;;5.67;3.13;;;15.20;96.30;;;15.41;61.17;97679.44;4952771;28;123768;-83
2023/10/24 04:22:20;;;;;;;4.30;3.00;;;15.60;96.60;;;15.37;60.88;97675.00;4947675;28;114290;-82
2023/10/24 04:24:47;;;;;;;6.40;3.00;;;15.20;96.30;;;15.38;60.90;97668.25;4962865;28;114439;-82
2023/10/24 04:27:13;;;;;;;7.27;3.30;;;15.20;96.30;;;15.40;61.12;97679.81;4963882;28;124118;-81
2023/10/24 04:29:42;;;;;;;5.03;3.13;;;15.20;96.40;;;15.44;61.09;97677.88;4947171;28;123731;-83
2023/10/24 04:32:09;;;;;;;3.77;2.57;;;17.60;97.40;;;15.45;61.15;97677.53;4947703;28;114207;-83
2023/10/24 04:34:35;;;;;;;3.57;2.73;;;15.20;96.40;;;15.50;60.60;97681.16;4964483;28;113120;-79
2023/10/24 04:37:02;;;;;;;5.97;3.13;;;15.20;96.40;;;15.50;60.51;97681.97;4953820;28;124116;-81
2023/10/24 04:39:29;;;;;;;5.70;2.93;;;15.20;96.40;;;15.50;60.90;97692.28;4957676;28;124273;-79
2023/10/24 04:41:55;;;;;;;4.70;3.07;;;15.20;96.40;;;15.49;61.01;97688.72;4948862;28;114377;-82
2023/10/24 04:44:22;;;;;;;8.17;3.20;;;15.20;96.70;;;15.49;60.98;97680.34;4949272;28;113894;-82
2023/10/24 04:46:50;;;;;;;6.80;3.10;;;15.20;96.50;;;15.51;60.81;97697.50;4948841;28;124016;-84
2023/10/24 04:49:17;;;;;;;8.00;3.20;;;15.60;96.60;;;15.52;61.05;97681.59;4948155;28;124295;-80
2023/10/24 04:51:43;;;;;;;11.43;4.23;;;15.20;96.50;;;15.53;60.98;97688.75;4948499;28;113604;-79
2023/10/24 04:54:12;;;;;;;5.20;3.20;;;17.40;97.50;;;15.53;60.98;97680.41;4957303;28;114007;-81
2023/10/24 04:56:39;;;;;;;8.50;3.47;;;15.90;96.80;;;15.55;60.97;97675.28;4948608;28;124753;-79
2023/10/24 04:59:08;;;;;;;5.53;3.07;;;15.20;96.50;;;15.56;61.02;97671.34;4948543;28;123958;-81
2023/10/24 05:01:37;;;;;;;8.53;3.10;;;15.30;96.60;;;15.55;60.88;97678.84;4949892;28;116182;-81
2023/10/24 05:04:07;;;;;;;4.43;2.90;;;15.30;96.60;;;15.57;61.10;97675.72;4950837;28;114974;-80
2023/10/24 05:06:36;;;;;;;10.80;3.40;;;15.20;96.60;;;15.58;60.85;97680.09;4947879;28;124715;-82
2023/10/24 05:09:02;;;;;;;7.40;3.40;;;15.30;96.60;;;15.60;61.04;97674.97;4951145;28;123903;-80
2023/10/24 05:11:31;;;;;;;7.27;3.10;;;15.30;96.60;;;15.60;61.04;97669.41;4957360;28;114429;-79
2023/10/24 05:13:58;;;;;;;5.43;3.23;;;15.30;96.60;;;15.60;61.09;97664.63;4948961;28;113323;-80
2023/10/24 05:16:24;;;;;;;6.33;2.93;;;15.30;96.60;;;15.61;61.07;97659.88;4960668;28;122972;-80
2023/10/24 05:18:50;;;;;;;7.00;3.23;;;15.30;96.70;;;15.61;60.90;97657.09;4961559;28;123779;-80
2023/10/24 05:21:17;;;;;;;10.80;3.63;;;15.30;96.70;;;15.61;60.91;97645.97;4971287;28;114775;-79
2023/10/24 05:23:43;;;;;;;11.13;3.93;;;15.30;96.70;;;15.60;61.04;97636.78;4971614;28;114063;-83
2023/10/24 05:26:10;;;;;;;10.60;4.50;;;15.30;96.70;;;15.60;61.57;97630.41;4970247;28;124872;-83
2023/10/24 05:28:36;;;;;;;9.40;4.63;;;15.30;97.00;;;15.59;61.84;97624.06;4971243;28;123845;-82
2023/10/24 05:31:08;;;;;;;7.37;3.50;;;15.30;97.20;;;15.54;61.89;97626.34;4971301;28;114416;-83
2023/10/24 05:33:36;;;;;;;8.13;3.97;;;15.20;97.10;;;15.49;61.99;97635.03;4973569;28;113191;-81
2023/10/24 05:36:08;;;;;;;9.10;4.20;;;15.20;97.00;;;15.50;62.01;97633.84;4989071;28;123480;-79
2023/10/24 05:38:34;;;;;;;7.93;3.50;;;15.20;97.10;;;15.50;61.95;97636.63;4970792;28;123606;-80
2023/10/24 05:41:01;;;;;;;9.23;4.27;;;15.20;97.10;;;15.49;61.85;97627.47;4971137;28;114020;-79
2023/10/24 05:43:30;;;;;;;6.37;4.10;;;15.20;97.10;;;15.49;61.99;97624.69;4971769;28;113757;-80
2023/10/24 05:45:57;;;;;;;6.93;3.60;;;15.20;97.10;;;15.49;62.04;97635.03;4957305;28;122824;-79
2023/10/24 05:48:23;;;;;;;6.67;3.67;;;15.30;97.20;;;15.50;62.01;97625.47;4950281;28;124045;-80
2023/10/24 05:50:50;;;;;;;12.40;3.80;;;15.20;97.10;;;15.49;62.00;97630.25;4950932;28;116454;-81
2023/10/24 05:53:16;;;;;;;9.43;3.43;;;15.20;97.10;;;15.48;61.94;97625.06;4950761;28;114984;-78
2023/10/24 05:55:42;;;;;;;4.80;3.40;;;15.20;97.10;;;15.46;61.76;97631.78;4950727;28;124062;-80
2023/10/24 05:58:09;;;;;;;5.70;3.03;;;17.20;97.90;;;15.45;61.74;97630.22;4950631;28;123996;-80
2023/10/24 06:00:36;;;;;;;6.57;3.60;;;16.40;97.50;;;15.46;61.65;97623.44;4953576;28;113681;-80
2023/10/24 06:03:02;;;;;;;5.97;3.10;;;15.20;97.00;;;15.48;61.52;97616.72;4967872;28;114034;-80
2023/10/24 06:05:32;;;;;;;6.40;3.30;;;15.20;97.00;;;15.49;61.71;97618.31;4964305;28;124055;-80
2023/10/24 06:07:59;;;;;;;8.10;3.80;;;15.20;97.00;;;15.50;61.75;97626.31;4963728;28;122696;-79
2023/10/24 06:10:32;;;;;;;5.77;3.00;;;15.20;97.00;;;15.53;61.45;97630.28;4951122;28;114552;-79
2023/10/24 06:12:58;;;;;;;7.10;3.50;;;15.20;97.00;;;15.54;61.55;97626.34;4958064;28;114361;-81
2023/10/24 06:15:25;;;;;;;5.97;3.63;;;15.20;97.00;;;15.54;61.39;97629.13;4999494;28;124065;-80
2023/10/24 06:17:55;;;;;;;6.07;3.30;;;15.20;97.00;;;15.54;61.31;97638.28;4970272;28;124219;-80
2023/10/24 06:20:21;;;;;;;9.43;3.90;;;15.30;97.00;;;15.56;61.54;97635.13;4970227;28;114278;-79
2023/10/24 06:22:48;;;;;;;6.80;4.00;;;15.30;97.00;;;15.57;61.33;97640.31;4965872;28;114025;-81
2023/10/24 06:25:15;;;;;;;7.00;4.00;;;15.30;97.00;;;15.58;61.39;97641.94;4961677;28;124607;-82
2023/10/24 06:27:41;;;;;;;8.17;4.27;;;15.30;97.00;;;15.59;61.37;97635.19;4965676;28;123887;-82
2023/10/24 06:30:08;;;;;;;6.80;3.60;;;15.30;97.00;;;15.61;61.52;97645.97;4955416;28;114242;-80
2023/10/24 06:32:35;;;;;;;4.60;3.17;;;15.30;97.00;;;15.62;61.39;97645.56;4966491;28;115709;-80
2023/10/24 06:35:02;;;;;;;5.53;3.60;;;16.10;97.40;;;15.63;61.51;97640.81;4969804;28;123886;-81
2023/10/24 06:37:28;;;;;;;7.23;3.70;;;15.30;97.00;;;15.63;61.56;97638.00;4965376;28;124896;-80
2023/10/24 06:39:57;;;;;;;7.63;3.57;;;15.30;97.00;;;15.63;61.26;97633.25;4966927;28;115107;-80
2023/10/24 06:42:24;;;;;;;3.80;3.00;;;15.30;97.00;;;15.63;61.55;97638.00;4969868;28;114994;-80
2023/10/24 06:44:53;;;;;;;6.07;3.43;;;15.30;97.00;;;15.63;61.47;97629.66;4986847;28;123660;-79
2023/10/24 06:47:21;;;;;;;6.23;3.10;;;15.30;97.00;;;15.61;61.48;97626.47;4956305;28;123859;-80
2023/10/24 06:49:47;;;;;;;7.03;3.20;;;15.50;97.10;;;15.61;61.45;97629.25;4966341;28;113422;-80
2023/10/24 06:52:14;;;;;;;5.17;2.73;;;15.30;97.00;;;15.60;61.64;97631.22;4961257;28;113666;-83
2023/10/24 06:54:40;;;;;;;4.30;2.70;;;15.30;97.00;;;15.61;61.58;97626.47;4966140;28;124801;-80
2023/10/24 06:57:06;;;;;;;9.30;3.33;;;15.30;97.10;;;15.63;61.87;97629.66;4955775;28;122952;-80
2023/10/24 06:59:33;;;;;;;7.30;3.00;;;15.30;97.10;;;15.66;61.68;97628.91;4969608;28;114586;-81
2023/10/24 07:01:59;;;;;;;9.53;3.87;;;15.30;97.20;;;15.65;61.71;97635.66;4970027;28;113007;-78
2023/10/24 07:04:26;;;;;;;5.90;3.47;;;15.40;97.30;;;15.66;61.83;97640.03;4968637;28;124187;-81
2023/10/24 07:06:57;;;;;;;6.43;3.73;;;15.40;97.30;;;15.68;61.82;97648.84;4987506;28;122972;-79
2023/10/24 07:09:23;;;;;;;8.83;4.27;;;15.40;97.30;;;15.68;62.15;97644.09;4969714;28;114052;-82
2023/10/24 07:11:50;;;;;;;7.20;3.87;;;15.40;97.40;;;15.72;62.01;97632.22;4965040;28;114073;-82
2023/10/24 07:14:16;;;;;;;8.60;4.30;;;15.40;97.40;;;15.70;62.25;97634.59;4967583;28;124012;-80
2023/10/24 07:16:43;;;;;;;9.13;4.33;;;15.40;97.50;;;15.72;62.36;97635.81;4963947;28;124363;-80
2023/10/24 07:19:10;;;;;;;7.83;3.83;;;15.40;97.60;;;15.71;62.43;97659.25;4967059;28;114000;-81
2023/10/24 07:21:37;;;;;;;7.77;3.50;;;15.40;97.60;;;15.70;62.79;97657.66;4965682;28;114130;-81
2023/10/24 07:24:13;;;;;;;6.20;3.17;;;15.40;97.60;;;15.71;62.47;97652.88;4964773;28;124083;-79
2023/10/24 07:26:39;;;;;;;6.50;3.70;;;15.40;97.60;;;15.71;62.50;97648.13;4969461;28;123937;-80
2023/10/24 07:29:06;;;;;;;6.10;3.77;;;15.40;97.70;;;15.72;62.79;97651.72;4968844;28;115285;-80
2023/10/24 07:31:32;;;;;;;5.20;3.60;;;15.40;97.70;;;15.71;62.89;97656.47;4969234;28;114970;-82
2023/10/24 07:33:59;;;;;;;6.70;4.20;;;15.40;97.80;;;15.71;62.98;97653.69;4969400;28;124142;-78
2023/10/24 07:36:31;;;;;;;8.70;3.90;;;15.40;97.90;;;15.72;63.05;97655.31;4967361;28;123772;-79
2023/10/24 07:39:00;;;;;;;7.33;4.33;;;15.40;97.90;;;15.73;63.20;97656.91;5001504;28;114525;-79
2023/10/24 07:41:29;;;;;;;6.83;3.70;;;15.40;97.90;;;15.74;63.13;97666.06;4970759;28;114014;-78
2023/10/24 07:44:00;;;;;;;11.80;4.30;;;15.40;98.00;;;15.74;63.42;97669.63;4964500;28;123897;-80
2023/10/24 07:46:28;;;;;;;5.63;3.50;;;15.40;98.00;;;15.70;63.22;97656.84;4964022;28;123868;-78
2023/10/24 07:48:58;;;;;;;7.40;4.37;;;15.90;98.30;;;15.67;63.48;97647.25;4960431;28;113904;-78
2023/10/24 07:51:31;;;;;;;8.37;4.20;;;15.40;98.20;;;15.65;63.64;97646.81;4966811;28;114063;-80
2023/10/24 07:53:58;;;;;;;9.70;5.20;;;15.40;98.20;;;15.62;64.11;97655.91;4968254;28;124149;-80
2023/10/24 07:56:26;;;;;;;12.70;6.07;;;15.40;98.40;;;15.57;64.21;97659.00;4966355;28;123905;-80
2023/10/24 07:58:53;;;;;;;16.20;6.50;;;15.40;98.40;;;15.54;64.36;97663.34;4957646;28;114411;-81
2023/10/24 08:01:20;;;;;;;14.10;6.20;;;15.30;98.40;;;15.53;64.16;97672.06;4967559;28;114030;-83
2023/10/24 08:03:46;;;;;;;13.47;5.80;;;15.80;98.80;;;15.50;64.24;97670.03;4968642;28;124088;-79
2023/10/24 08:06:13;;;;;;;14.70;5.83;;;15.30;98.60;;;15.48;64.64;97659.28;4967047;28;123948;-80
2023/10/24 08:08:42;;;;;;;8.50;4.90;;;15.20;98.50;;;15.46;64.54;97654.06;4968958;28;114052;-79
2023/10/24 08:11:09;;;;;;;8.97;5.20;;;15.20;98.50;;;15.50;64.47;97667.25;4962107;28;114039;-79
2023/10/24 08:13:39;;;;;;;7.47;4.23;;;15.30;98.60;;;15.51;64.73;97666.06;4962052;28;124072;-80
2023/10/24 08:16:10;;;;;;;8.27;4.60;;;15.30;99.00;;;15.51;64.61;97666.88;4971286;28;125511;-81
2023/10/24 08:18:38;;;;;;;8.00;4.23;;;15.30;98.80;;;15.54;64.80;97670.91;4968162;28;115994;-79
2023/10/24 08:21:07;;;;;;;9.60;4.67;;;15.30;98.90;;;15.55;64.79;97672.50;4966899;28;114281;-79
2023/10/24 08:23:33;;;;;;;6.10;3.50;;;15.30;99.00;;;15.56;64.85;97662.97;4954925;28;124421;-81
2023/10/24 08:26:00;;;;;;;8.00;4.10;;;15.30;99.00;;;15.59;65.38;97659.44;4965810;28;123794;-79
2023/10/24 08:28:27;;;;;;;6.87;3.37;;;15.30;99.10;;;15.58;65.38;97660.59;4963680;28;114325;-80
2023/10/24 08:30:53;;;;;;;6.23;3.20;;;15.30;99.20;;;15.56;65.20;97657.41;4964104;28;113836;-80
2023/10/24 08:33:20;;;;;;;3.40;2.80;;;16.40;99.70;;;15.53;65.27;97645.03;4964344;28;123970;-82
2023/10/24 08:35:47;;;;;;;4.97;2.70;;;15.30;99.20;;;15.54;64.96;97646.63;4959293;28;123891;-79
2023/10/24 08:38:13;;;;;;;5.00;3.10;;;15.30;99.20;;;15.55;65.40;97662.16;4956787;28;113696;-79
2023/10/24 08:40:41;;;;;;;6.80;3.20;;;15.30;99.30;;;15.54;65.72;97666.13;4968818;28;114126;-79
2023/10/24 08:43:10;;;;;;;4.97;2.87;;;15.30;99.30;;;15.57;65.60;97670.16;4951541;28;122914;-79
2023/10/24 08:45:37;;;;;;;4.10;2.60;;;15.30;99.40;;;15.58;65.62;97666.19;4976786;28;124448;-80
2023/10/24 08:48:05;;;;;;;3.80;2.60;;;15.30;99.40;;;15.60;65.71;97680.53;4959336;28;114056;-79
2023/10/24 08:50:33;;;;;;;5.80;3.07;;;15.30;99.50;;;15.59;65.93;97690.06;4989952;28;113903;-78
2023/10/24 08:53:04;;;;;;;4.43;2.47;;;15.30;99.60;;;15.59;65.96;97702.00;4956162;28;124549;-79
2023/10/24 08:55:33;;;;;;;4.30;3.20;;;15.30;99.60;;;15.60;66.21;97697.25;4957429;28;123426;-79
2023/10/24 08:58:03;;;;;;;7.93;3.87;;;15.40;99.80;;;15.62;66.27;97692.09;4951541;28;113563;-79
2023/10/24 09:00:32;;;;;;;9.07;4.17;;;15.40;99.90;;;15.61;66.57;97687.72;4943634;28;113611;-79
2023/10/24 09:03:00;;;;;;;12.30;5.53;;;15.30;99.90;;;15.62;66.64;97692.09;4947137;28;124113;-82
2023/10/24 09:05:27;;;;;;;9.50;5.13;;;15.40;99.90;;;15.63;66.50;97685.34;4962679;28;124287;-82
2023/10/24 09:07:56;;;;;;;10.17;5.00;;;15.40;99.90;;;15.63;66.48;97696.50;4959439;28;114607;-80
2023/10/24 09:10:22;;;;;;;6.33;4.10;;;15.40;99.90;;;15.64;66.78;97687.78;4968509;28;115114;-79
2023/10/24 09:12:55;;;;;;;10.17;5.13;;;15.40;99.90;;;15.66;66.81;97692.94;4959321;28;123262;-80
2023/10/24 09:15:22;;;;;;;11.13;5.10;;;15.40;99.90;;;15.65;66.94;97696.94;4958818;28;124165;-80
2023/10/24 09:17:49;;;;;;;8.97;4.73;;;15.40;99.90;;;15.64;66.70;97693.34;4954870;28;114668;-81
2023/10/24 09:20:21;;;;;;;15.23;5.20;;;15.40;99.90;;;15.65;66.70;97706.06;4964226;28;113878;-80
2023/10/24 09:22:52;;;;;;;9.13;4.30;;;15.40;99.90;;;15.65;66.87;97688.56;4985417;28;123143;-79
2023/10/24 09:25:21;;;;;;;9.40;4.37;;;15.40;99.90;;;15.63;66.70;97690.91;4970909;28;123395;-79
2023/10/24 09:27:47;;;;;;;11.60;4.50;;;15.40;99.90;;;15.62;66.80;97678.97;4967132;28;114197;-79
2023/10/24 09:30:17;;;;;;;5.90;3.47;;;15.40;99.90;;;15.63;67.03;97675.00;4967439;28;113915;-79
2023/10/24 09:32:44;;;;;;;9.27;4.97;;;15.40;99.90;;;15.64;66.93;97681.41;4998881;28;124652;-79
2023/10/24 09:35:11;;;;;;;7.67;4.13;;;15.40;99.90;;;15.64;66.93;97692.53;4967374;28;123565;-79
2023/10/24 09:37:44;;;;;;;10.03;4.80;;;16.20;99.90;;;15.65;66.85;97691.34;4969780;28;113664;-80
2023/10/24 09:40:14;;;;;;;10.90;5.40;;;15.40;99.90;;;15.63;67.19;97697.28;4965490;28;113889;-79
2023/10/24 09:42:42;;;;;;;8.80;4.67;;;15.40;99.90;;;15.64;67.07;97700.91;4974069;28;123734;-79
2023/10/24 09:45:10;;;;;;;10.60;5.73;;;15.40;99.90;;;15.65;67.16;97689.38;4952187;28;123821;-79
2023/10/24 09:47:39;;;;;;;13.60;4.97;;;15.40;99.90;;;15.68;67.18;97687.81;4963374;28;114175;-79
2023/10/24 09:50:08;;;;;;;9.90;4.50;;;15.40;99.90;;;15.70;67.39;97682.72;4957205;28;112983;-80
2023/10/24 09:52:36;;;;;;;11.90;5.90;;;15.40;99.90;;;15.73;67.15;97689.53;4963071;28;125862;-81
2023/10/24 09:55:03;;;;;;;10.13;5.00;;;15.50;99.90;;;15.74;67.22;97686.34;4968073;28;123835;-79
2023/10/24 09:57:30;;;;;;;7.27;4.40;;;15.40;99.90;;;15.75;67.29;97692.75;4962337;28;115154;-79
2023/10/24 09:59:59;;;;;;;10.50;4.93;;;15.40;99.90;;;15.76;67.49;97681.22;4962683;28;114798;-79
2023/10/24 10:02:26;;;;;;;10.60;4.50;;;15.50;99.90;;;15.76;67.35;97675.66;4961983;28;124347;-79
2023/10/24 10:04:53;;;;;;;8.87;4.67;;;15.50;99.90;;;15.76;67.45;97670.06;4960314;28;123775;-79
2023/10/24 10:07:20;;;;;;;7.97;4.43;;;15.50;99.90;;;15.77;67.54;97674.47;4966415;28;114626;-79
2023/10/24 10:09:51;;;;;;;10.73;5.00;;;15.50;99.90;;;15.76;67.54;97667.28;4974651;28;113691;-79
2023/10/24 10:12:20;;;;;;;11.20;5.10;;;17.00;99.90;;;15.76;67.39;97664.50;4968536;28;124782;-78
2023/10/24 10:15:38;;;;;;;8.90;4.83;;;15.50;99.90;;;15.74;67.81;97666.06;4965796;28;123803;-78